Aboyne, United Kingdom
Current Conditions -  °F | °C
As of 9:20 AM on Saturday 25 Oct 2014 (Local Time) from EGPD Reporting Station
Broken Clouds Broken Clouds  
Wind Chill: 50°   Ceiling: 2900
Heat Index: 50°   Visibility: 6mi
Dew Point: 45°   Wind: 22mph
Humidity: 82%   Direction: 190°S
Pressure: 29.56"   Gusts: NA
Location:  57.08°N, 2.78°W
Report Text: EGPD 250820Z 19019KT 9999 FEW020 SCT024 BKN029 10/07 Q1001 NOSIG
Loading
Personal Weather Stations






























Interactive Weather Map
Tropical Storm Tracking
New forecast layout! Learn more

10-Day Weather Forecast

Advertisements
Track Severe Weather on mobile